Beaverton, OR

11:01 PM PDT en Octubre 31, 2014 (GMT -0700)
Walker/217 | Change Station
CLOSE
Current Station
Estación meteorológica personal
Location: Beaverton, OR
Altura: 223 ft
Estaciones meteorológicas cercanas

Alt 223 ft 45.50 °N, 122.79 °W | Updated 2 seconds ago

Muy nublado
Muy nublado
49.7 ° F
Sensación térmica 50 ° F
N
0.0
Viento Variable Viento desde Norte
Gusts 0.0 mph

Hoy
Alta -- | Baja -- ° F
--% Posibilidad de precipitaciones
Ayer
Alta -- | Baja -- ° F
Precip. -- pul
7:49 AM 5:59 PM
Gibosa creciente, 63% visible
Presión 29.85 pul
Visibilidad 3.0 Millas
Nubes Muy nublado 100 ft
Vientos helados 50 ° F
Punto de rocío 46 ° F
Humedad 87%
Precipitaciones 0.99 pul
Espesor de la nieve No disponible.
UV 0 de una escala de 12
Polen .40 de una escala de 12
Calidad del aire No disponible.
Flu Activity No disponible.
SPECI KHIO 010553Z AUTO 00000KT 3SM BR BKN001 08/08 A2985 RMK AO2 T00830083 TSNO

More Conditions Fewer Conditions

Presión 29.85 pul
Visibilidad 3.0 Millas
Nubes Muy nublado 100 ft
Vientos helados 50 ° F
Punto de rocío 46 ° F
Humedad 87%
Precipitaciones 0.99 pul
Espesor de la nieve No disponible.
UV 0 de una escala de 12
Polen .40 de una escala de 12
Calidad del aire No disponible.
Flu Activity No disponible.
SPECI KHIO 010553Z AUTO 00000KT 3SM BR BKN001 08/08 A2985 RMK AO2 T00830083 TSNO

More Conditions Fewer Conditions

10-Day Weather Forecast

Almanac

Astronomía

Oct. 31, 2014 Salida Puesta
Hora real
Crepúsculo civil
Crepúsculo náutico
Crepúsculo astronómico
Luna
Horas de luz
Horas de luz
Tomorrow will be .
, % of the Moon is Illuminated

Extremos de hoy

Máximos del estado Bajos del estado

Community

WunderPhotos

Upload Photos

1,766,862 ¡fotos cargadas!

WunderBlogs® & News

Nearby

Calidad del aire

  Calidad del aire Índice AQ Contaminante
Not available.

Grosos de nieve

Estación Profundido Altura

Actividad de terremotos

Ciudad Distance Mag. Tiempo y dato
Magnitud mínima muestra es 2,5.

Temperaturas de aguas costeras

Lugar Temperatura

Estaciones meteorológicas cercanas